Time;durP1;ratioP1;P1;durP2;ratioP2;P2;SDS_P1;SDS_P2;PMS_P1;PMS_P2;Temp;Humidity;BMP_temperature;BMP_pressure;BME280_temperature;BME280_humidity;BME280_pressure;Samples;Min_cycle;Max_cycle;Signal;HPM_P1;HPM_P2
2023/04/28 00:01:40;;;;;;;4.57;1.55;;;;;;;5.82;60.46;94852.59;5133043;27;20274;-72
2023/04/28 00:04:07;;;;;;;2.08;1.48;;;;;;;5.78;61.02;94856.16;5143870;27;20913;-72
2023/04/28 00:06:34;;;;;;;3.03;1.90;;;;;;;5.76;60.54;94847.56;5139788;27;20659;-72
2023/04/28 00:09:02;;;;;;;3.92;1.60;;;;;;;5.71;61.12;94857.34;5142564;27;20205;-71
2023/04/28 00:11:29;;;;;;;4.93;2.50;;;;;;;5.64;61.30;94859.56;5146684;27;20201;-72
2023/04/28 00:13:56;;;;;;;5.68;2.30;;;;;;;5.59;61.84;94859.66;5144029;27;20264;-72
2023/04/28 00:16:23;;;;;;;8.85;2.42;;;;;;;5.45;61.64;94842.66;5139563;27;20204;-71
2023/04/28 00:18:50;;;;;;;4.60;2.50;;;;;;;5.49;61.71;94859.78;5141382;27;20197;-72
2023/04/28 00:21:17;;;;;;;9.43;2.63;;;;;;;5.52;61.96;94864.56;5146486;27;20209;-72
2023/04/28 00:23:44;;;;;;;9.25;2.50;;;;;;;5.46;62.10;94855.00;5132429;27;20284;-72
2023/04/28 00:26:12;;;;;;;4.20;2.53;;;;;;;5.46;61.76;94855.00;5146716;27;20192;-71
2023/04/28 00:28:39;;;;;;;4.22;2.47;;;;;;;5.47;61.67;94856.56;5144838;27;20199;-70
2023/04/28 00:31:11;;;;;;;1.67;1.30;;;;;;;5.40;61.96;94855.34;5139156;27;20693;-72
2023/04/28 00:33:38;;;;;;;5.50;2.78;;;;;;;5.35;62.36;94853.53;5139716;27;20627;-71
2023/04/28 00:36:05;;;;;;;4.50;2.22;;;;;;;5.29;62.32;94863.53;5145782;27;20205;-72
2023/04/28 00:38:32;;;;;;;4.10;2.50;;;;;;;5.30;63.00;94867.03;5145588;27;20602;-72
2023/04/28 00:40:59;;;;;;;3.90;2.35;;;;;;;5.27;62.55;94867.59;5138897;27;20257;-72
2023/04/28 00:43:27;;;;;;;5.85;2.50;;;;;;;5.19;62.89;94873.63;5139190;27;20208;-71
2023/04/28 00:45:54;;;;;;;6.38;2.20;;;;;;;5.16;62.99;94874.19;5145756;27;20236;-72
2023/04/28 00:48:21;;;;;;;2.40;1.65;;;;;;;5.16;62.98;94866.94;5132213;27;20258;-72
2023/04/28 00:50:48;;;;;;;4.95;1.73;;;;;;;5.18;63.11;94869.34;5140137;27;20208;-72
2023/04/28 00:53:15;;;;;;;1.00;0.90;;;;;;;5.05;63.12;94867.34;5150979;27;20235;-73
2023/04/28 00:55:42;;;;;;;1.55;1.33;;;;;;;5.00;63.34;94871.69;5132124;27;20287;-72
2023/04/28 00:58:09;;;;;;;2.20;1.40;;;;;;;5.02;63.57;94875.97;5136948;27;20184;-73
2023/04/28 01:00:38;;;;;;;7.95;1.60;;;;;;;5.04;63.48;94873.81;5131732;27;20212;-71
2023/04/28 01:03:05;;;;;;;3.20;1.67;;;;;;;4.99;63.62;94872.78;5132455;27;20667;-71
2023/04/28 01:05:32;;;;;;;5.65;1.63;;;;;;;4.89;64.04;94867.53;5143183;27;20235;-72
2023/04/28 01:07:59;;;;;;;4.18;1.83;;;;;;;4.86;63.86;94886.06;5131321;27;20205;-71
2023/04/28 01:10:26;;;;;;;1.38;1.27;;;;;;;4.99;63.63;94878.13;5141174;27;20200;-71
2023/04/28 01:12:53;;;;;;;3.63;1.45;;;;;;;4.94;63.52;94883.56;5135170;27;20232;-71
2023/04/28 01:15:21;;;;;;;6.30;1.52;;;;;;;4.93;63.58;94881.94;5141379;27;20268;-70
2023/04/28 01:17:49;;;;;;;1.42;1.33;;;;;;;4.82;63.40;94875.09;5138085;27;20272;-71
2023/04/28 01:20:17;;;;;;;1.45;1.17;;;;;;;4.80;64.53;94884.50;5141526;27;20297;-71
2023/04/28 01:22:43;;;;;;;1.63;1.05;;;;;;;4.85;63.91;94887.16;5144936;27;20276;-71
2023/04/28 01:25:12;;;;;;;3.40;1.75;;;;;;;4.78;63.81;94892.88;5131496;27;20229;-72
2023/04/28 01:27:38;;;;;;;3.20;1.48;;;;;;;4.74;63.73;94886.47;5135516;27;20260;-72
2023/04/28 01:30:07;;;;;;;1.65;1.23;;;;;;;4.71;63.66;94886.22;5140924;27;20204;-71
2023/04/28 01:32:33;;;;;;;3.47;1.25;;;;;;;4.71;63.21;94881.66;5144942;27;20277;-71
2023/04/28 01:35:00;;;;;;;6.30;2.50;;;;;;;4.83;63.47;94895.50;5142487;27;20218;-71
2023/04/28 01:37:27;;;;;;;4.18;2.47;;;;;;;4.78;63.77;94892.88;5133360;27;20215;-71
2023/04/28 01:39:54;;;;;;;4.13;2.67;;;;;;;4.79;63.05;94890.97;5131222;27;20559;-71
2023/04/28 01:42:22;;;;;;;5.25;2.40;;;;;;;4.70;63.11;94884.63;5145102;27;20286;-71
2023/04/28 01:44:49;;;;;;;5.13;2.53;;;;;;;4.77;62.55;94877.84;5143684;27;20224;-72
2023/04/28 01:47:16;;;;;;;3.70;1.20;;;;;;;4.74;62.99;94889.16;5133035;27;20855;-72
2023/04/28 01:49:43;;;;;;;3.35;1.83;;;;;;;4.68;63.48;94881.44;5130810;27;20197;-72
2023/04/28 01:52:10;;;;;;;2.90;1.67;;;;;;;4.63;63.21;94890.34;5130968;27;20205;-72
2023/04/28 01:54:36;;;;;;;2.65;1.30;;;;;;;4.59;63.69;94889.31;5143257;27;20264;-71
2023/04/28 01:57:03;;;;;;;1.67;1.35;;;;;;;4.63;63.44;94891.16;5137754;27;20211;-71
2023/04/28 01:59:31;;;;;;;2.40;1.60;;;;;;;4.53;64.09;94885.84;5146572;27;20547;-71
2023/04/28 02:01:58;;;;;;;3.50;1.70;;;;;;;4.54;64.30;94894.72;5137222;27;20843;-71
2023/04/28 02:04:25;;;;;;;6.15;2.75;;;;;;;4.63;63.14;94890.34;5138008;27;20251;-71
2023/04/28 02:06:52;;;;;;;2.50;1.40;;;;;;;4.69;63.53;94889.19;5144526;27;20197;-72
2023/04/28 02:09:18;;;;;;;6.10;1.65;;;;;;;4.68;63.34;94892.97;5144205;27;20244;-72
2023/04/28 02:11:45;;;;;;;2.65;1.45;;;;;;;4.74;63.12;94891.84;5137580;27;20210;-71
2023/04/28 02:14:12;;;;;;;0.98;0.85;;;;;;;4.77;62.67;94895.84;5135892;27;20820;-73
2023/04/28 02:16:40;;;;;;;3.05;1.45;;;;;;;4.77;63.16;94896.66;5143983;27;20205;-72
2023/04/28 02:19:07;;;;;;;2.40;1.60;;;;;;;4.71;63.38;94897.75;5144031;27;20903;-71
2023/04/28 02:21:34;;;;;;;1.95;0.90;;;;;;;4.75;63.06;94898.81;5138130;27;20826;-72
2023/04/28 02:24:01;;;;;;;2.35;1.58;;;;;;;4.74;63.73;94902.56;5137322;27;20679;-72
2023/04/28 02:26:28;;;;;;;1.77;1.23;;;;;;;4.68;63.31;94901.00;5143520;27;20229;-71
2023/04/28 02:28:54;;;;;;;3.75;1.10;;;;;;;4.69;64.20;94910.66;5130592;27;20663;-72
2023/04/28 02:31:21;;;;;;;1.90;1.48;;;;;;;4.58;64.36;94906.47;5138022;27;20667;-72
2023/04/28 02:33:49;;;;;;;8.43;2.70;;;;;;;4.51;64.51;94903.34;5137116;27;20640;-72
2023/04/28 02:36:16;;;;;;;3.92;2.28;;;;;;;4.43;65.13;94901.25;5142871;27;20197;-72
2023/04/28 02:38:43;;;;;;;3.83;2.15;;;;;;;4.40;65.22;94912.53;5144249;27;20279;-72
2023/04/28 02:41:10;;;;;;;4.30;2.53;;;;;;;4.29;65.12;94906.47;5138895;27;20204;-72
2023/04/28 02:43:38;;;;;;;6.57;3.10;;;;;;;4.26;65.33;94917.75;5136532;27;20304;-72
2023/04/28 02:46:05;;;;;;;5.72;2.00;;;;;;;4.28;65.68;94916.38;5142114;27;20232;-72
2023/04/28 02:48:34;;;;;;;4.40;2.47;;;;;;;4.20;65.36;94903.59;5143386;27;20189;-72
2023/04/28 02:51:02;;;;;;;4.25;2.33;;;;;;;4.27;65.87;94917.47;5129758;27;20674;-72
2023/04/28 02:53:29;;;;;;;1.88;1.60;;;;;;;4.20;65.91;94918.88;5142995;27;20229;-71
2023/04/28 02:55:56;;;;;;;3.03;1.50;;;;;;;4.13;66.38;94919.19;5130253;27;20201;-71
2023/04/28 02:58:23;;;;;;;4.88;1.65;;;;;;;4.18;65.61;94916.47;5134539;27;20580;-71
2023/04/28 03:00:50;;;;;;;3.45;1.33;;;;;;;4.13;66.01;94927.22;5129876;27;20209;-71
2023/04/28 03:03:18;;;;;;;1.10;1.00;;;;;;;4.21;65.53;94928.53;5143816;27;20208;-72
2023/04/28 03:05:45;;;;;;;5.57;1.40;;;;;;;4.26;65.28;94923.09;5140941;27;20227;-72
2023/04/28 03:08:13;;;;;;;2.00;1.23;;;;;;;4.26;65.64;94915.88;5146759;27;20298;-71
2023/04/28 03:10:40;;;;;;;2.80;1.58;;;;;;;4.37;64.82;94923.84;5140382;27;20200;-72
2023/04/28 03:13:07;;;;;;;5.85;2.72;;;;;;;4.34;64.97;94924.41;5135865;27;20573;-71
2023/04/28 03:15:34;;;;;;;4.60;2.50;;;;;;;4.23;66.05;94929.84;5138704;27;20201;-71
2023/04/28 03:18:01;;;;;;;4.78;2.53;;;;;;;4.24;65.41;94925.25;5142987;27;20630;-71
2023/04/28 03:20:27;;;;;;;4.45;2.42;;;;;;;4.28;64.53;94929.78;5140771;27;20211;-71
2023/04/28 03:22:54;;;;;;;6.38;2.85;;;;;;;4.34;64.57;94935.13;5136189;27;20286;-71
2023/04/28 03:25:22;;;;;;;3.90;2.40;;;;;;;4.31;64.57;94941.84;5138371;27;20838;-72
2023/04/28 03:27:49;;;;;;;5.65;2.67;;;;;;;4.49;63.47;94937.69;5150314;27;20201;-71
2023/04/28 03:30:16;;;;;;;1.75;1.42;;;;;;;4.61;62.82;94946.16;5136083;27;20201;-71
2023/04/28 03:32:43;;;;;;;14.85;5.78;;;;;;;4.65;63.43;94952.53;5142354;27;20203;-72
2023/04/28 03:35:10;;;;;;;5.82;1.88;;;;;;;4.69;63.19;94958.97;5144981;27;20248;-71
2023/04/28 03:37:37;;;;;;;3.88;1.45;;;;;;;4.87;63.23;94966.31;5150336;27;20655;-71
2023/04/28 03:40:05;;;;;;;2.03;1.23;;;;;;;5.17;61.40;94961.72;5149228;27;20281;-72
2023/04/28 03:42:33;;;;;;;4.32;1.75;;;;;;;5.59;60.42;94961.75;5142863;27;20658;-71
2023/04/28 03:45:00;;;;;;;2.30;1.33;;;;;;;5.88;58.93;94963.53;5143092;27;20235;-71
2023/04/28 03:47:27;;;;;;;3.20;1.38;;;;;;;6.35;57.56;94957.25;5140752;27;20575;-71
2023/04/28 03:49:54;;;;;;;2.53;0.85;;;;;;;6.77;56.24;94961.69;5149182;27;20208;-71
2023/04/28 03:52:21;;;;;;;1.90;1.15;;;;;;;7.12;55.09;94966.44;5143394;27;20678;-71
2023/04/28 03:54:48;;;;;;;4.18;1.77;;;;;;;7.48;53.92;94968.47;5152332;27;20299;-71
2023/04/28 03:57:14;;;;;;;2.58;1.13;;;;;;;7.96;52.35;94968.03;5141636;27;20184;-71
2023/04/28 03:59:43;;;;;;;5.38;1.73;;;;;;;8.05;52.06;94966.22;5150412;27;20220;-72
2023/04/28 04:02:09;;;;;;;2.85;1.63;;;;;;;8.28;51.28;94975.97;5143655;27;20803;-71
2023/04/28 04:04:36;;;;;;;2.38;1.45;;;;;;;8.69;50.41;94975.03;5150569;27;20188;-72
2023/04/28 04:07:03;;;;;;;5.95;1.75;;;;;;;9.39;48.91;94977.06;5135816;27;20232;-71
2023/04/28 04:09:30;;;;;;;5.35;2.45;;;;;;;9.36;48.10;94978.47;5140422;27;20867;-71
2023/04/28 04:11:57;;;;;;;4.00;1.63;;;;;;;9.65;46.98;94985.28;5145074;27;20268;-71
2023/04/28 04:14:24;;;;;;;4.75;1.60;;;;;;;10.15;46.92;94966.78;5137772;27;20858;-72
2023/04/28 04:16:54;;;;;;;3.33;1.58;;;;;;;9.79;47.04;94983.25;5139463;27;20203;-72
2023/04/28 04:19:22;;;;;;;2.38;1.35;;;;;;;10.21;45.99;94977.19;5145808;27;20288;-73
2023/04/28 04:21:49;;;;;;;9.10;1.70;;;;;;;10.55;45.63;94986.44;5139364;27;20224;-72
2023/04/28 04:24:16;;;;;;;2.83;1.48;;;;;;;10.65;43.96;94975.31;5139241;27;20235;-71
2023/04/28 04:26:43;;;;;;;2.70;1.77;;;;;;;11.98;42.35;94975.94;5142134;27;20233;-72
2023/04/28 04:29:09;;;;;;;2.63;1.90;;;;;;;12.08;41.59;94983.69;5147695;27;20193;-70
2023/04/28 04:31:36;;;;;;;4.57;1.92;;;;;;;12.64;41.09;94976.13;5141902;27;20197;-73
2023/04/28 04:34:05;;;;;;;4.35;1.50;;;;;;;12.26;40.86;94981.69;5139099;27;20204;-72
2023/04/28 04:36:32;;;;;;;4.40;1.92;;;;;;;12.53;40.18;94977.66;5144887;27;20211;-72
2023/04/28 04:38:59;;;;;;;4.35;1.83;;;;;;;12.21;40.77;94981.06;5144722;27;20220;-72
2023/04/28 04:41:26;;;;;;;2.58;1.27;;;;;;;12.50;40.13;94986.47;5142387;27;20207;-72
2023/04/28 04:43:53;;;;;;;4.78;1.50;;;;;;;12.61;40.33;94976.78;5138056;27;20260;-72
2023/04/28 04:46:20;;;;;;;3.60;2.15;;;;;;;13.22;39.24;94982.53;5140300;27;20232;-72
2023/04/28 04:48:47;;;;;;;3.25;1.45;;;;;;;12.50;40.06;94991.09;5145595;27;20600;-72
2023/04/28 04:51:15;;;;;;;6.43;1.83;;;;;;;12.16;41.11;95000.28;5143381;27;20659;-70
2023/04/28 04:53:42;;;;;;;3.40;1.77;;;;;;;12.64;40.43;94987.00;5132967;27;20281;-72
2023/04/28 04:56:09;;;;;;;3.35;2.22;;;;;;;12.97;39.55;94994.41;5132069;27;20570;-73
2023/04/28 04:58:36;;;;;;;4.65;2.47;;;;;;;14.08;38.33;94992.41;5136970;27;20558;-73
2023/04/28 05:01:03;;;;;;;4.10;2.05;;;;;;;14.04;38.21;94996.97;5139848;27;20224;-71
2023/04/28 05:03:30;;;;;;;9.43;2.58;;;;;;;13.78;37.74;94999.22;5144887;27;20204;-71
2023/04/28 05:05:57;;;;;;;5.63;2.22;;;;;;;14.31;37.05;95000.16;5144150;27;20729;-71
2023/04/28 05:08:25;;;;;;;2.35;1.35;;;;;;;14.45;36.76;95000.63;5138267;27;20197;-72
2023/04/28 05:10:52;;;;;;;3.67;2.35;;;;;;;13.99;37.82;95005.34;5139189;27;20204;-72
2023/04/28 05:13:19;;;;;;;5.45;2.28;;;;;;;13.02;39.07;94994.19;5131218;27;20249;-72
2023/04/28 05:15:46;;;;;;;5.43;2.20;;;;;;;12.28;40.25;95009.31;5131409;27;20231;-73
2023/04/28 05:18:13;;;;;;;2.90;1.90;;;;;;;12.41;40.21;95013.72;5131728;27;20291;-73
2023/04/28 05:20:40;;;;;;;6.28;2.60;;;;;;;12.84;39.73;95014.53;5144718;27;20193;-72
2023/04/28 05:23:06;;;;;;;7.68;2.38;;;;;;;14.12;38.10;95006.16;5137834;27;20193;-71
2023/04/28 05:25:35;;;;;;;3.67;2.42;;;;;;;13.94;38.15;95008.28;5138108;27;20568;-72
2023/04/28 05:28:06;;;;;;;4.70;2.58;;;;;;;15.03;36.83;94998.44;5138944;27;20196;-72
2023/04/28 05:30:33;;;;;;;5.25;2.17;;;;;;;15.32;36.44;95008.19;5137176;27;20189;-73
2023/04/28 05:32:59;;;;;;;6.95;2.72;;;;;;;14.10;37.75;95011.94;5131485;27;20205;-73
2023/04/28 05:35:26;;;;;;;6.85;2.70;;;;;;;13.89;38.30;95011.25;5145168;27;20215;-72
2023/04/28 05:37:53;;;;;;;11.30;2.50;;;;;;;14.01;38.31;95003.09;5131392;27;20201;-73
2023/04/28 05:40:21;;;;;;;5.00;2.40;;;;;;;13.62;39.10;94995.56;5132592;27;20201;-72
2023/04/28 05:42:49;;;;;;;5.35;2.47;;;;;;;13.86;38.49;95004.56;5142696;27;20639;-75
2023/04/28 05:45:16;;;;;;;5.47;2.47;;;;;;;14.06;38.18;95000.16;5144381;27;20238;-73
2023/04/28 05:47:43;;;;;;;7.90;2.40;;;;;;;14.86;37.06;95002.25;5140436;27;20208;-74
2023/04/28 05:50:10;;;;;;;4.47;2.60;;;;;;;14.62;36.60;94989.47;5138129;27;20284;-76
2023/04/28 05:52:37;;;;;;;6.82;2.78;;;;;;;14.07;37.81;95004.47;5142181;27;20239;-72
2023/04/28 05:55:04;;;;;;;5.85;2.30;;;;;;;14.05;38.46;95005.94;5133614;27;20729;-73
2023/04/28 05:57:31;;;;;;;4.15;2.45;;;;;;;14.07;39.03;95003.69;5142846;27;20201;-72
2023/04/28 06:00:00;;;;;;;4.63;2.33;;;;;;;13.51;38.89;95012.34;5134130;27;20212;-73
2023/04/28 06:02:29;;;;;;;4.63;2.70;;;;;;;14.21;38.49;95012.31;5129960;27;20777;-72
2023/04/28 06:04:56;;;;;;;5.40;2.60;;;;;;;13.55;38.65;95011.63;5144258;27;20209;-73
2023/04/28 06:07:22;;;;;;;3.38;2.20;;;;;;;13.32;38.28;95017.47;5141728;27;20220;-72
2023/04/28 06:09:49;;;;;;;4.30;2.17;;;;;;;13.17;39.25;95009.94;5133197;27;20209;-73
2023/04/28 06:12:16;;;;;;;4.32;2.05;;;;;;;13.13;38.63;95011.69;5130282;27;20272;-72
2023/04/28 06:14:43;;;;;;;4.22;2.20;;;;;;;12.28;40.10;95011.22;5144617;27;20196;-72
2023/04/28 06:17:11;;;;;;;5.57;2.40;;;;;;;12.75;39.99;95018.09;5142046;27;20205;-73
2023/04/28 06:19:38;;;;;;;4.03;2.35;;;;;;;12.88;39.75;95010.00;5146043;27;20200;-73
2023/04/28 06:22:05;;;;;;;4.75;2.13;;;;;;;13.28;38.61;95002.94;5135097;27;20193;-73
2023/04/28 06:24:32;;;;;;;3.72;1.55;;;;;;;12.95;39.42;95015.72;5135578;27;20257;-73
2023/04/28 06:26:59;;;;;;;7.82;2.20;;;;;;;13.65;39.67;95000.34;5135329;27;20220;-73
2023/04/28 06:29:26;;;;;;;5.82;2.20;;;;;;;14.54;37.55;95009.47;5143165;27;20204;-72
2023/04/28 06:31:56;;;;;;;4.03;2.00;;;;;;;13.16;39.30;95003.69;5140780;27;20192;-72
2023/04/28 06:34:26;;;;;;;3.10;1.80;;;;;;;13.13;38.93;95001.59;5134570;27;20258;-72
2023/04/28 06:36:53;;;;;;;4.45;2.35;;;;;;;13.14;38.39;95005.94;5135669;27;20197;-73
2023/04/28 06:39:20;;;;;;;3.83;1.90;;;;;;;13.76;38.57;95006.94;5136322;27;20249;-72
2023/04/28 06:41:47;;;;;;;2.10;1.42;;;;;;;14.40;37.68;95001.63;5137445;27;20798;-73
2023/04/28 06:44:14;;;;;;;5.07;1.98;;;;;;;16.06;35.11;94988.34;5146046;27;20702;-72
2023/04/28 06:46:41;;;;;;;4.50;1.73;;;;;;;14.68;36.25;94996.25;5132214;27;20311;-71
2023/04/28 06:49:08;;;;;;;2.63;1.95;;;;;;;15.36;35.09;94995.44;5143659;27;20200;-73
2023/04/28 06:51:36;;;;;;;4.10;2.67;;;;;;;15.15;34.81;94985.56;5129971;27;20197;-73
2023/04/28 06:54:03;;;;;;;4.85;2.20;;;;;;;14.71;35.88;94987.38;5137826;27;20224;-73
2023/04/28 06:56:30;;;;;;;5.68;2.53;;;;;;;16.13;34.46;94983.03;5136354;27;20296;-73
2023/04/28 06:58:57;;;;;;;4.53;2.58;;;;;;;17.44;33.04;94985.13;5141501;27;20213;-72
2023/04/28 07:01:24;;;;;;;3.35;1.73;;;;;;;14.61;34.83;94998.00;5128170;27;20225;-75
2023/04/28 07:03:51;;;;;;;3.70;2.10;;;;;;;14.40;37.65;94998.13;5137578;27;20898;-72
2023/04/28 07:06:19;;;;;;;5.93;2.72;;;;;;;15.03;35.72;94993.78;5135667;27;20703;-73
2023/04/28 07:08:47;;;;;;;3.88;1.92;;;;;;;13.63;36.66;94992.50;5140947;27;20288;-74
2023/04/28 07:11:15;;;;;;;5.40;2.50;;;;;;;13.37;38.53;95000.94;5143051;27;20204;-72
2023/04/28 07:13:42;;;;;;;4.95;2.30;;;;;;;14.52;38.56;94998.88;5129253;27;20204;-72
2023/04/28 07:16:09;;;;;;;3.53;2.30;;;;;;;15.34;35.54;94986.81;5132410;27;20204;-73
2023/04/28 07:18:36;;;;;;;5.00;2.75;;;;;;;14.10;38.35;94995.59;5140064;27;20254;-72
2023/04/28 07:21:03;;;;;;;3.40;2.28;;;;;;;13.97;37.55;94982.31;5128823;27;20246;-74
2023/04/28 07:23:30;;;;;;;3.20;2.00;;;;;;;13.43;37.78;94999.59;5139213;27;20200;-72
2023/04/28 07:25:59;;;;;;;5.70;2.20;;;;;;;12.03;39.84;95008.31;5135710;27;20200;-73
2023/04/28 07:28:26;;;;;;;5.43;1.83;;;;;;;13.49;39.33;94997.47;5139888;27;20201;-73
2023/04/28 07:30:53;;;;;;;3.15;1.25;;;;;;;13.42;38.39;94995.28;5129099;28;20254;-72
2023/04/28 07:33:19;;;;;;;1.88;1.40;;;;;;;13.47;39.19;94983.38;5139433;27;20199;-73
2023/04/28 07:35:47;;;;;;;5.13;2.05;;;;;;;14.72;36.60;94991.72;5135891;27;20196;-72
2023/04/28 07:38:13;;;;;;;5.15;2.47;;;;;;;15.56;35.51;94983.56;5139172;27;20201;-73
2023/04/28 07:40:42;;;;;;;3.22;1.42;;;;;;;15.45;37.37;94976.97;5142579;27;20291;-73
2023/04/28 07:43:10;;;;;;;1.33;1.02;;;;;;;13.75;37.44;94995.25;5139734;27;20202;-73
2023/04/28 07:45:38;;;;;;;3.30;2.13;;;;;;;13.51;38.37;94998.72;5130543;27;20244;-73
2023/04/28 07:48:05;;;;;;;3.30;2.10;;;;;;;13.09;39.00;95006.16;5128697;28;20233;-73
2023/04/28 07:50:32;;;;;;;4.68;2.30;;;;;;;13.64;37.66;94987.84;5141816;27;20280;-73
2023/04/28 07:52:59;;;;;;;7.30;2.30;;;;;;;14.36;36.91;94989.78;5141424;27;20219;-73
2023/04/28 07:55:26;;;;;;;3.13;1.65;;;;;;;14.50;36.82;94986.72;5135566;27;20203;-73
2023/04/28 07:57:54;;;;;;;1.55;1.08;;;;;;;12.85;39.01;94994.38;5140753;27;20188;-75
2023/04/28 08:00:22;;;;;;;6.25;1.92;;;;;;;13.78;39.04;94978.22;5128917;27;20760;-73
2023/04/28 08:02:49;;;;;;;2.38;1.40;;;;;;;13.46;37.60;94982.59;5128514;28;20722;-73
2023/04/28 08:05:16;;;;;;;6.00;2.00;;;;;;;12.87;38.07;94989.38;5142054;27;20211;-73
2023/04/28 08:07:43;;;;;;;4.97;2.00;;;;;;;12.87;38.95;94984.72;5142077;27;20231;-73
2023/04/28 08:10:10;;;;;;;2.80;1.27;;;;;;;13.19;38.77;94988.63;5136035;27;20924;-72
2023/04/28 08:12:38;;;;;;;3.25;1.75;;;;;;;13.14;37.90;94981.47;5136171;27;20197;-74
2023/04/28 08:15:05;;;;;;;7.70;1.98;;;;;;;13.80;37.12;94986.84;5145352;27;20212;-74
2023/04/28 08:17:33;;;;;;;2.45;1.88;;;;;;;14.03;35.61;94987.22;5132508;27;20537;-73
2023/04/28 08:20:00;;;;;;;3.65;1.92;;;;;;;13.92;37.40;94988.78;5140674;27;20200;-72
2023/04/28 08:22:27;;;;;;;3.97;1.88;;;;;;;13.09;37.95;94994.47;5137831;27;20608;-72
2023/04/28 08:24:54;;;;;;;2.78;1.90;;;;;;;13.03;39.05;95001.22;5131909;27;20196;-73
2023/04/28 08:27:22;;;;;;;4.57;1.58;;;;;;;12.56;37.67;94992.50;5146072;27;20972;-74
2023/04/28 08:29:49;;;;;;;2.05;1.38;;;;;;;13.18;37.35;94987.03;5141432;27;20224;-73
2023/04/28 08:32:16;;;;;;;2.97;1.90;;;;;;;13.04;37.92;94991.94;5139202;27;20254;-72
2023/04/28 08:34:44;;;;;;;5.35;1.90;;;;;;;14.08;35.68;94984.25;5152845;27;20801;-72
2023/04/28 08:37:12;;;;;;;2.83;1.70;;;;;;;14.14;36.40;94985.63;5138841;27;20566;-73
2023/04/28 08:39:39;;;;;;;4.95;1.73;;;;;;;13.02;37.47;94994.19;5143257;27;20631;-73
2023/04/28 08:42:06;;;;;;;3.65;2.05;;;;;;;13.07;37.38;94985.84;5146179;27;20197;-73
2023/04/28 08:44:37;;;;;;;3.75;2.45;;;;;;;13.20;37.77;94979.34;5140808;27;20605;-73
2023/04/28 08:47:11;;;;;;;2.20;1.23;;;;;;;12.90;38.22;94980.56;5138868;27;20689;-73
2023/04/28 08:49:39;;;;;;;2.45;1.80;;;;;;;12.94;37.97;94981.50;5141777;27;20205;-72
2023/04/28 08:52:11;;;;;;;2.40;1.58;;;;;;;13.66;36.52;94975.50;5145806;27;20560;-72
2023/04/28 08:54:39;;;;;;;4.35;1.23;;;;;;;13.45;36.16;94970.13;5131292;27;20228;-73
2023/04/28 08:57:09;;;;;;;5.72;2.03;;;;;;;13.24;37.71;94968.59;5146019;27;20225;-72
2023/04/28 08:59:38;;;;;;;3.10;2.00;;;;;;;14.42;36.33;94965.88;5136377;27;20201;-72
2023/04/28 09:02:05;;;;;;;1.30;1.10;;;;;;;13.90;36.90;94958.38;5139349;27;20216;-73
2023/04/28 09:04:32;;;;;;;4.20;2.00;;;;;;;13.55;36.81;94962.63;5138579;27;20296;-73
2023/04/28 09:06:59;;;;;;;3.30;2.22;;;;;;;13.34;37.45;94963.53;5144494;27;20789;-73
2023/04/28 09:09:29;;;;;;;3.80;2.25;;;;;;;13.64;38.36;94960.63;5145777;27;20295;-72
2023/04/28 09:11:58;;;;;;;5.00;2.10;;;;;;;14.03;37.29;94957.25;5139921;27;20235;-73
2023/04/28 09:14:25;;;;;;;5.22;2.53;;;;;;;14.45;36.71;94954.28;5138060;27;20208;-73
2023/04/28 09:16:53;;;;;;;5.60;2.25;;;;;;;14.93;35.30;94940.50;5143232;27;20232;-73
2023/04/28 09:19:20;;;;;;;5.30;1.88;;;;;;;14.91;36.25;94931.84;5131144;27;20205;-73
2023/04/28 09:21:48;;;;;;;3.40;2.28;;;;;;;13.12;37.35;94947.53;5140691;27;20192;-73
2023/04/28 09:24:32;;;;;;;2.60;1.77;;;;;;;12.57;38.02;94951.41;5147823;27;20814;-73
2023/04/28 09:26:59;;;;;;;5.82;2.63;;;;;;;12.78;38.27;94946.75;5141363;27;20567;-73
2023/04/28 09:29:26;;;;;;;4.22;2.20;;;;;;;13.37;38.15;94941.09;5137852;27;20204;-72
2023/04/28 09:31:53;;;;;;;4.32;2.30;;;;;;;13.82;37.26;94942.94;5138757;27;20694;-72
2023/04/28 09:34:20;;;;;;;3.28;2.10;;;;;;;13.91;37.68;94938.19;5131070;27;20200;-73
2023/04/28 09:36:47;;;;;;;2.25;2.00;;;;;;;13.91;37.70;94931.94;5144294;27;20546;-73
2023/04/28 09:39:14;;;;;;;6.10;2.00;;;;;;;13.84;36.71;94929.78;5131153;27;20201;-73
2023/04/28 09:41:44;;;;;;;5.00;2.25;;;;;;;13.51;38.25;94925.22;5130945;27;20207;-73
2023/04/28 09:44:16;;;;;;;7.72;2.40;;;;;;;13.17;38.73;94933.75;5138265;27;20811;-74
2023/04/28 09:46:43;;;;;;;5.47;1.70;;;;;;;13.32;38.31;94927.69;5137440;27;20280;-73
2023/04/28 09:49:10;;;;;;;6.35;2.03;;;;;;;13.62;37.23;94917.41;5142651;27;20205;-74
2023/04/28 09:51:38;;;;;;;3.38;2.03;;;;;;;13.39;37.41;94919.75;5131833;27;20205;-73
2023/04/28 09:54:05;;;;;;;3.50;1.90;;;;;;;13.24;37.48;94897.88;5142930;27;20251;-73
2023/04/28 09:56:37;;;;;;;3.03;1.73;;;;;;;13.85;37.28;94912.31;5144749;27;20200;-73
2023/04/28 09:59:06;;;;;;;6.55;2.30;;;;;;;14.17;36.96;94903.19;5136205;27;20647;-73
2023/04/28 10:01:37;;;;;;;6.00;1.77;;;;;;;13.75;37.08;94907.31;5130255;27;20745;-75
2023/04/28 10:04:05;;;;;;;3.15;1.85;;;;;;;13.66;37.60;94893.03;5140162;27;20287;-73
2023/04/28 10:06:34;;;;;;;6.15;2.05;;;;;;;14.09;36.73;94885.03;5136692;27;20283;-73
2023/04/28 10:09:01;;;;;;;5.30;1.80;;;;;;;14.17;37.06;94889.56;5139851;27;20345;-74
2023/04/28 10:11:29;;;;;;;5.88;1.90;;;;;;;14.18;37.59;94893.88;5144514;27;20218;-74
2023/04/28 10:13:56;;;;;;;4.47;1.50;;;;;;;13.66;36.84;94887.59;5130340;27;20276;-73
2023/04/28 10:16:26;;;;;;;3.85;1.80;;;;;;;13.82;37.67;94896.63;5134395;27;20193;-73
2023/04/28 10:18:55;;;;;;;3.03;2.00;;;;;;;13.55;36.40;94875.53;5139599;27;20205;-73
2023/04/28 10:21:23;;;;;;;3.80;1.65;;;;;;;14.08;36.60;94883.44;5143608;27;20215;-74
2023/04/28 10:24:15;;;;;;;6.40;2.10;;;;;;;14.04;36.55;94885.28;5142315;27;20249;-72
2023/04/28 10:27:05;;;;;;;2.22;1.60;;;;;;;13.94;36.06;94885.72;5129795;27;20197;-74
2023/04/28 10:29:33;;;;;;;5.95;2.00;;;;;;;13.72;36.61;94891.66;5144072;27;20246;-73
2023/04/28 10:32:18;;;;;;;4.47;1.60;;;;;;;14.07;36.33;94870.97;5130388;27;20212;-73
2023/04/28 10:34:57;;;;;;;4.30;1.55;;;;;;;14.13;36.92;94875.03;5139656;27;20204;-73
2023/04/28 10:37:54;;;;;;;3.67;1.50;;;;;;;14.39;36.90;94873.84;5136930;27;20260;-74
2023/04/28 10:40:33;;;;;;;3.47;1.65;;;;;;;14.14;35.37;94863.00;5119229;27;20197;-73
2023/04/28 10:43:00;;;;;;;3.28;1.70;;;;;;;13.96;35.49;94867.13;5140139;27;20201;-73
2023/04/28 10:46:05;;;;;;;5.22;2.40;;;;;;;13.69;36.17;94860.47;5143277;27;20193;-72
2023/04/28 10:49:07;;;;;;;2.88;1.73;;;;;;;14.13;36.80;94864.16;5143689;27;20318;-72
2023/04/28 10:51:35;;;;;;;4.88;2.10;;;;;;;14.50;36.16;94861.34;5129477;27;20204;-73
2023/04/28 10:54:18;;;;;;;3.35;1.90;;;;;;;14.79;35.46;94858.25;5137201;27;20224;-72
2023/04/28 10:57:22;;;;;;;5.97;1.80;;;;;;;15.25;34.05;94855.97;5136290;27;20188;-73
2023/04/28 10:59:50;;;;;;;5.72;1.73;;;;;;;15.16;33.94;94844.44;5143354;27;20188;-72
2023/04/28 11:02:36;;;;;;;2.63;1.75;;;;;;;15.41;33.41;94848.59;5138669;27;20680;-72
2023/04/28 11:05:18;;;;;;;4.38;1.42;;;;;;;14.72;34.77;94855.34;5130313;27;20258;-72
2023/04/28 11:08:35;;;;;;;3.42;1.50;;;;;;;14.67;33.28;94843.91;5142698;27;20294;-75
2023/04/28 11:11:21;;;;;;;2.85;1.70;;;;;;;14.80;34.08;94837.25;5116247;27;20900;-72
2023/04/28 11:13:49;;;;;;;2.20;1.50;;;;;;;14.92;33.73;94840.69;5139416;27;20276;-78
2023/04/28 11:16:21;;;;;;;10.13;1.70;;;;;;;14.81;33.98;94838.81;5142887;27;20198;-74
2023/04/28 11:19:04;;;;;;;2.72;1.75;;;;;;;15.33;33.23;94833.16;5140895;27;20196;-73
2023/04/28 11:21:33;;;;;;;6.20;1.45;;;;;;;15.09;33.06;94816.94;5136226;27;20192;-73
2023/04/28 11:24:01;;;;;;;2.30;1.35;;;;;;;14.58;33.37;94816.78;5135713;27;20253;-77
2023/04/28 11:26:29;;;;;;;3.63;1.60;;;;;;;14.47;33.92;94818.44;5141955;27;20193;-75
2023/04/28 11:28:57;;;;;;;3.08;1.58;;;;;;;14.44;34.03;94819.91;5142843;27;20263;-72
2023/04/28 11:31:25;;;;;;;1.80;1.25;;;;;;;15.10;33.86;94813.88;5136699;27;20576;-73
2023/04/28 11:33:57;;;;;;;3.38;1.50;;;;;;;15.01;32.41;94826.13;5135980;27;20280;-73
2023/04/28 11:36:26;;;;;;;4.68;1.38;;;;;;;14.34;33.51;94803.25;5149587;27;20191;-73
2023/04/28 11:38:55;;;;;;;2.92;1.75;;;;;;;13.98;34.17;94818.56;5136217;27;20212;-73
2023/04/28 11:41:23;;;;;;;3.90;1.83;;;;;;;14.33;33.44;94807.91;5139222;27;20663;-72
2023/04/28 11:43:50;;;;;;;3.03;1.40;;;;;;;14.21;33.57;94805.22;5142711;27;20674;-72